Time;durP1;ratioP1;P1;durP2;ratioP2;P2;SDS_P1;SDS_P2;PMS_P1;PMS_P2;Temp;Humidity;BMP_temperature;BMP_pressure;BME280_temperature;BME280_humidity;BME280_pressure;Samples;Min_cycle;Max_cycle;Signal;HPM_P1;HPM_P2
2022/09/20 00:00:12;;;;;;;4.65;1.95;;;;;;;;;;5039127;28;20042;-82
2022/09/20 00:02:38;;;;;;;5.50;1.50;;;;;;;;;;5044678;28;20053;-82
2022/09/20 00:05:05;;;;;;;5.72;2.00;;;;;;;;;;5044397;28;20492;-82
2022/09/20 00:07:31;;;;;;;5.32;1.77;;;;;;;;;;5043491;28;20049;-82
2022/09/20 00:09:57;;;;;;;3.50;1.65;;;;;;;;;;5039514;28;20128;-82
2022/09/20 00:12:23;;;;;;;5.97;2.30;;;;;;;;;;5048174;28;20120;-82
2022/09/20 00:14:49;;;;;;;7.50;1.85;;;;;;;;;;5048225;28;20057;-80
2022/09/20 00:17:15;;;;;;;8.07;1.85;;;;;;;;;;5046465;28;20045;-81
2022/09/20 00:19:41;;;;;;;5.85;1.70;;;;;;;;;;5045121;28;20045;-81
2022/09/20 00:22:07;;;;;;;4.43;1.88;;;;;;;;;;5051466;28;20405;-81
2022/09/20 00:24:35;;;;;;;5.65;2.00;;;;;;;;;;5053095;28;20041;-81
2022/09/20 00:27:01;;;;;;;8.50;2.00;;;;;;;;;;5048904;28;20405;-81
2022/09/20 00:29:30;;;;;;;7.03;1.80;;;;;;;;;;5049472;28;20052;-81
2022/09/20 00:31:56;;;;;;;7.20;1.60;;;;;;;;;;5049241;28;20175;-82
2022/09/20 00:37:07;;;;;;;8.10;2.13;;;;;;;;;;5039286;28;20045;-81
2022/09/20 00:39:33;;;;;;;8.75;1.83;;;;;;;;;;5039227;28;20420;-82
2022/09/20 00:41:59;;;;;;;5.32;1.70;;;;;;;;;;5041733;28;20049;-82
2022/09/20 00:44:44;;;;;;;6.60;1.88;;;;;;;;;;5040026;28;20045;-80
2022/09/20 00:47:16;;;;;;;5.68;1.90;;;;;;;;;;5042497;28;20079;-81
2022/09/20 00:49:42;;;;;;;4.95;1.83;;;;;;;;;;5039178;28;20055;-82
2022/09/20 00:52:08;;;;;;;2.95;1.60;;;;;;;;;;5038840;28;20465;-81
2022/09/20 00:54:34;;;;;;;4.88;1.80;;;;;;;;;;5043223;28;20055;-82
2022/09/20 00:57:00;;;;;;;3.97;1.50;;;;;;;;;;5046094;28;20051;-82
2022/09/20 00:59:29;;;;;;;4.00;1.50;;;;;;;;;;5048226;28;20045;-81
2022/09/20 01:02:18;;;;;;;3.55;1.67;;;;;;;;;;5047502;28;20060;-82
2022/09/20 01:04:45;;;;;;;6.63;1.67;;;;;;;;;;5038394;28;20455;-82
2022/09/20 01:07:13;;;;;;;7.45;1.88;;;;;;;;;;5045793;28;20041;-81
2022/09/20 01:09:39;;;;;;;3.90;1.50;;;;;;;;;;5042219;28;20458;-81
2022/09/20 01:12:09;;;;;;;2.47;1.92;;;;;;;;;;5042548;28;20049;-80
2022/09/20 01:14:35;;;;;;;5.63;1.85;;;;;;;;;;5040192;28;20048;-81
2022/09/20 01:17:03;;;;;;;8.68;2.03;;;;;;;;;;5040494;28;20075;-81
2022/09/20 01:19:42;;;;;;;4.95;1.77;;;;;;;;;;5041860;28;20135;-81
2022/09/20 01:22:26;;;;;;;4.15;1.65;;;;;;;;;;5041383;28;20044;-81
2022/09/20 01:25:07;;;;;;;4.22;1.70;;;;;;;;;;5056550;28;20041;-81
2022/09/20 01:27:33;;;;;;;4.88;1.52;;;;;;;;;;5045648;28;20049;-81
2022/09/20 01:30:03;;;;;;;5.45;1.70;;;;;;;;;;5050649;28;20456;-82
2022/09/20 01:32:55;;;;;;;5.43;1.55;;;;;;;;;;5046833;28;20083;-82
2022/09/20 01:35:23;;;;;;;4.47;1.60;;;;;;;;;;5022741;28;20075;-82
2022/09/20 01:37:54;;;;;;;5.10;1.60;;;;;;;;;;5042320;28;20045;-82
2022/09/20 01:40:34;;;;;;;1.88;1.30;;;;;;;;;;5048267;28;20497;-82
2022/09/20 01:43:03;;;;;;;5.35;1.60;;;;;;;;;;5042356;28;20127;-82
2022/09/20 01:45:31;;;;;;;4.03;1.52;;;;;;;;;;5039054;28;20106;-82
2022/09/20 01:48:00;;;;;;;5.55;1.60;;;;;;;;;;5046574;28;20118;-83
2022/09/20 01:51:02;;;;;;;3.90;1.70;;;;;;;;;;5049937;28;20055;-82
2022/09/20 01:53:46;;;;;;;6.70;1.80;;;;;;;;;;4978869;28;20054;-82
2022/09/20 01:56:25;;;;;;;3.55;1.50;;;;;;;;;;5057411;28;20049;-82
2022/09/20 01:59:10;;;;;;;4.47;1.70;;;;;;;;;;5045318;28;20130;-82
2022/09/20 02:02:00;;;;;;;3.45;1.52;;;;;;;;;;5035095;28;20055;-82
2022/09/20 02:04:44;;;;;;;4.30;1.70;;;;;;;;;;5032210;28;20132;-82
2022/09/20 02:07:25;;;;;;;3.80;1.60;;;;;;;;;;5037509;28;20037;-82
2022/09/20 02:10:24;;;;;;;4.97;1.70;;;;;;;;;;5044166;28;20052;-81
2022/09/20 02:12:58;;;;;;;5.18;1.60;;;;;;;;;;5014996;28;20045;-82
2022/09/20 02:15:41;;;;;;;3.33;1.40;;;;;;;;;;5048506;28;20045;-80
2022/09/20 02:18:35;;;;;;;4.97;1.95;;;;;;;;;;5047351;28;20210;-81
2022/09/20 02:21:01;;;;;;;3.95;1.45;;;;;;;;;;5045744;28;20485;-82
2022/09/20 02:23:27;;;;;;;4.03;1.67;;;;;;;;;;5049465;28;20051;-82
2022/09/20 02:26:09;;;;;;;3.65;1.65;;;;;;;;;;5047745;28;20083;-82
2022/09/20 02:28:38;;;;;;;2.70;1.60;;;;;;;;;;5048146;28;20090;-82
2022/09/20 02:31:07;;;;;;;4.85;1.85;;;;;;;;;;5049884;28;20136;-81
2022/09/20 02:33:39;;;;;;;2.50;1.25;;;;;;;;;;5046597;28;20055;-82
2022/09/20 02:36:15;;;;;;;4.22;1.50;;;;;;;;;;5045683;28;20048;-83
2022/09/20 02:39:02;;;;;;;2.55;1.50;;;;;;;;;;5049314;28;20044;-83
2022/09/20 02:41:37;;;;;;;6.40;1.60;;;;;;;;;;5021469;28;20147;-82
2022/09/20 02:44:17;;;;;;;4.35;1.40;;;;;;;;;;5039524;28;20098;-82
2022/09/20 02:46:47;;;;;;;3.97;1.38;;;;;;;;;;5036427;28;20048;-83
2022/09/20 02:49:23;;;;;;;3.17;1.40;;;;;;;;;;5040137;28;20078;-83
2022/09/20 02:51:51;;;;;;;4.57;1.48;;;;;;;;;;5039194;28;21311;-83
2022/09/20 02:54:24;;;;;;;5.10;1.60;;;;;;;;;;5035880;28;20080;-83
2022/09/20 02:57:02;;;;;;;4.03;1.40;;;;;;;;;;5039596;28;20170;-82
2022/09/20 02:59:47;;;;;;;2.47;1.30;;;;;;;;;;5041595;28;20045;-83
2022/09/20 03:02:16;;;;;;;3.33;1.40;;;;;;;;;;5054230;28;20494;-83
2022/09/20 03:04:55;;;;;;;3.58;1.48;;;;;;;;;;5047336;28;20086;-83
2022/09/20 03:07:24;;;;;;;3.25;1.50;;;;;;;;;;5041119;28;20496;-83
2022/09/20 03:09:56;;;;;;;3.22;1.55;;;;;;;;;;5044852;28;20048;-83
2022/09/20 03:12:28;;;;;;;6.53;1.45;;;;;;;;;;5046365;28;20399;-83
2022/09/20 03:14:59;;;;;;;3.28;1.30;;;;;;;;;;5043030;28;20045;-83
2022/09/20 03:17:46;;;;;;;3.22;1.52;;;;;;;;;;5041380;28;20716;-82
2022/09/20 03:20:20;;;;;;;2.58;1.20;;;;;;;;;;5041904;28;20396;-83
2022/09/20 03:22:46;;;;;;;4.32;1.65;;;;;;;;;;5037754;28;20548;-83
2022/09/20 03:25:30;;;;;;;4.75;1.60;;;;;;;;;;5039815;28;20101;-83
2022/09/20 03:27:56;;;;;;;10.50;2.10;;;;;;;;;;5038012;28;20045;-81
2022/09/20 03:30:40;;;;;;;7.47;2.20;;;;;;;;;;5040534;28;20064;-81
2022/09/20 03:33:06;;;;;;;6.40;1.95;;;;;;;;;;5035079;28;20457;-81
2022/09/20 03:35:35;;;;;;;5.70;1.80;;;;;;;;;;5037837;28;20393;-81
2022/09/20 03:38:14;;;;;;;5.50;1.92;;;;;;;;;;5039550;28;20039;-80
2022/09/20 03:41:06;;;;;;;4.00;1.83;;;;;;;;;;5040802;28;20049;-81
2022/09/20 03:43:32;;;;;;;5.18;1.92;;;;;;;;;;5026723;28;20072;-81
2022/09/20 03:46:05;;;;;;;6.65;1.45;;;;;;;;;;5042918;28;20124;-81
2022/09/20 03:48:31;;;;;;;5.78;1.85;;;;;;;;;;5038744;28;20044;-81
2022/09/20 03:51:04;;;;;;;4.15;1.45;;;;;;;;;;5043019;28;20098;-81
2022/09/20 03:53:30;;;;;;;5.25;1.70;;;;;;;;;;5040144;28;20045;-82
2022/09/20 03:56:22;;;;;;;6.47;1.80;;;;;;;;;;5040381;28;20037;-81
2022/09/20 03:58:54;;;;;;;3.78;1.52;;;;;;;;;;5047870;28;20041;-80
2022/09/20 04:01:41;;;;;;;4.63;1.60;;;;;;;;;;5041175;28;20057;-81
2022/09/20 04:04:13;;;;;;;4.72;1.77;;;;;;;;;;5046479;28;20090;-81
2022/09/20 04:06:45;;;;;;;4.07;1.23;;;;;;;;;;5048165;28;20037;-81
2022/09/20 04:09:14;;;;;;;1.60;1.50;;;;;;;;;;5047139;28;20086;-81
2022/09/20 04:11:49;;;;;;;3.53;1.30;;;;;;;;;;5044231;28;20048;-81
2022/09/20 04:14:34;;;;;;;6.93;2.33;;;;;;;;;;5050150;28;20076;-81
2022/09/20 04:17:06;;;;;;;3.83;1.65;;;;;;;;;;5048186;28;20049;-80
2022/09/20 04:19:32;;;;;;;6.28;2.08;;;;;;;;;;5049023;28;20053;-81
2022/09/20 04:21:59;;;;;;;9.13;2.42;;;;;;;;;;5051156;28;20105;-81
2022/09/20 04:24:35;;;;;;;6.10;2.20;;;;;;;;;;5052430;28;20448;-81
2022/09/20 04:27:01;;;;;;;6.70;1.95;;;;;;;;;;5040956;28;20052;-81
2022/09/20 04:29:30;;;;;;;7.65;2.15;;;;;;;;;;5048809;28;20102;-80
2022/09/20 04:31:59;;;;;;;2.70;1.60;;;;;;;;;;5050788;28;20041;-80
2022/09/20 04:36:27;;;;;;;2.70;1.40;;;;;;;;;;5044753;28;20072;-80
2022/09/20 04:37:21;;;;;;;3.67;1.63;;;;;;;;;;5052693;28;20056;-80
2022/09/20 04:39:52;;;;;;;5.10;2.17;;;;;;;;;;5052519;28;20037;-81
2022/09/20 04:42:22;;;;;;;3.17;1.50;;;;;;;;;;5046440;28;20053;-81
2022/09/20 04:45:06;;;;;;;4.75;1.60;;;;;;;;;;5039503;28;20500;-81
2022/09/20 04:47:46;;;;;;;4.80;1.75;;;;;;;;;;5039099;28;20684;-81
2022/09/20 04:50:25;;;;;;;4.25;1.70;;;;;;;;;;5040176;28;20388;-81
2022/09/20 04:53:09;;;;;;;5.40;1.80;;;;;;;;;;5039277;28;20048;-82
2022/09/20 04:55:43;;;;;;;1.92;1.50;;;;;;;;;;5037429;28;20049;-81
2022/09/20 04:58:18;;;;;;;6.80;1.80;;;;;;;;;;5038604;28;20496;-82
2022/09/20 05:01:15;;;;;;;4.93;1.60;;;;;;;;;;5039080;28;20033;-81
2022/09/20 05:03:56;;;;;;;4.15;1.60;;;;;;;;;;5041462;28;20041;-81
2022/09/20 05:06:33;;;;;;;2.67;1.60;;;;;;;;;;5047069;28;20108;-81
2022/09/20 05:09:15;;;;;;;4.53;1.58;;;;;;;;;;5051401;28;20480;-82
2022/09/20 05:11:45;;;;;;;4.70;1.85;;;;;;;;;;5045336;28;20052;-83
2022/09/20 05:14:30;;;;;;;3.92;2.00;;;;;;;;;;5047313;28;20439;-82
2022/09/20 05:17:18;;;;;;;7.15;2.30;;;;;;;;;;5047555;28;20056;-81
2022/09/20 05:20:06;;;;;;;6.28;2.00;;;;;;;;;;5039877;28;20045;-83
2022/09/20 05:22:38;;;;;;;4.15;1.80;;;;;;;;;;5058989;28;20045;-82
2022/09/20 05:25:05;;;;;;;5.15;1.73;;;;;;;;;;5051374;28;20052;-82
2022/09/20 05:27:50;;;;;;;3.38;1.60;;;;;;;;;;5046644;28;20396;-83
2022/09/20 05:30:21;;;;;;;9.70;1.95;;;;;;;;;;5048616;28;20497;-83
2022/09/20 05:33:06;;;;;;;4.10;1.63;;;;;;;;;;5043439;28;20052;-83
2022/09/20 05:35:44;;;;;;;7.35;1.90;;;;;;;;;;5045654;28;20558;-82
2022/09/20 05:38:23;;;;;;;4.28;1.80;;;;;;;;;;5045366;28;20041;-82
2022/09/20 05:40:49;;;;;;;4.20;1.90;;;;;;;;;;5051368;28;20099;-82
2022/09/20 05:43:25;;;;;;;4.88;1.80;;;;;;;;;;5045940;28;20041;-83
2022/09/20 05:46:14;;;;;;;8.07;1.63;;;;;;;;;;5041816;28;20057;-83
2022/09/20 05:48:43;;;;;;;5.38;1.65;;;;;;;;;;5040725;28;20033;-83
2022/09/20 05:51:21;;;;;;;3.97;1.50;;;;;;;;;;5039592;28;20131;-79
2022/09/20 05:53:50;;;;;;;4.03;1.80;;;;;;;;;;5041760;28;20037;-84
2022/09/20 05:56:21;;;;;;;4.38;1.90;;;;;;;;;;5037074;28;20041;-84
2022/09/20 05:59:17;;;;;;;5.63;1.85;;;;;;;;;;5033970;28;20557;-83
2022/09/20 06:02:12;;;;;;;5.55;1.88;;;;;;;;;;5022215;28;20054;-83
2022/09/20 06:04:46;;;;;;;7.68;1.90;;;;;;;;;;5033645;28;20266;-81
2022/09/20 06:07:31;;;;;;;5.38;2.13;;;;;;;;;;5039312;28;20049;-82
2022/09/20 06:10:12;;;;;;;6.97;1.60;;;;;;;;;;5040560;28;20040;-81
2022/09/20 06:12:51;;;;;;;7.28;1.55;;;;;;;;;;5051042;28;20049;-81
2022/09/20 06:15:35;;;;;;;6.65;1.65;;;;;;;;;;5039530;28;20124;-81
2022/09/20 06:18:20;;;;;;;2.40;1.50;;;;;;;;;;5049294;28;20496;-81
2022/09/20 06:21:13;;;;;;;7.00;1.88;;;;;;;;;;5051392;28;20374;-81
2022/09/20 06:23:39;;;;;;;6.87;1.97;;;;;;;;;;5045993;28;20068;-81
2022/09/20 06:26:25;;;;;;;6.90;2.00;;;;;;;;;;5049740;28;20073;-81
2022/09/20 06:28:54;;;;;;;6.13;1.67;;;;;;;;;;5045848;28;20048;-81
2022/09/20 06:31:20;;;;;;;6.70;1.67;;;;;;;;;;5050484;28;20481;-81
2022/09/20 06:34:07;;;;;;;5.50;1.70;;;;;;;;;;5037521;28;20045;-81
2022/09/20 06:42:11;;;;;;;4.83;1.80;;;;;;;;;;5052274;28;20049;-81
2022/09/20 06:44:40;;;;;;;5.47;1.92;;;;;;;;;;5037465;28;20186;-81
2022/09/20 06:47:07;;;;;;;4.57;1.67;;;;;;;;;;5049480;28;20059;-81
2022/09/20 06:49:34;;;;;;;5.30;1.75;;;;;;;;;;5048330;28;20055;-81
2022/09/20 06:52:01;;;;;;;4.47;1.60;;;;;;;;;;5038473;28;20071;-81
2022/09/20 06:54:28;;;;;;;6.90;1.55;;;;;;;;;;5055757;28;20045;-81
2022/09/20 06:56:54;;;;;;;5.60;1.88;;;;;;;;;;5048830;28;20128;-81
2022/09/20 06:59:20;;;;;;;5.07;1.80;;;;;;;;;;5048050;28;20480;-81
2022/09/20 07:01:47;;;;;;;3.70;1.58;;;;;;;;;;5048299;28;20502;-81
2022/09/20 07:04:13;;;;;;;3.65;1.50;;;;;;;;;;5040313;28;20041;-81
2022/09/20 07:06:39;;;;;;;4.70;1.50;;;;;;;;;;5048966;28;20051;-81
2022/09/20 07:09:05;;;;;;;6.72;2.00;;;;;;;;;;5049476;28;20114;-82
2022/09/20 07:11:33;;;;;;;5.93;1.83;;;;;;;;;;5043012;28;20435;-82
2022/09/20 07:14:00;;;;;;;4.13;1.42;;;;;;;;;;5044746;28;20091;-81
2022/09/20 07:16:26;;;;;;;5.25;1.85;;;;;;;;;;5051189;28;20060;-81
2022/09/20 07:18:52;;;;;;;4.63;2.00;;;;;;;;;;5042204;28;20124;-81
2022/09/20 07:21:19;;;;;;;4.45;1.60;;;;;;;;;;5043900;28;20106;-81
2022/09/20 07:23:47;;;;;;;3.25;1.50;;;;;;;;;;5037912;28;20041;-81
2022/09/20 07:26:25;;;;;;;3.95;1.83;;;;;;;;;;5048493;28;20068;-81
2022/09/20 07:28:51;;;;;;;5.72;1.73;;;;;;;;;;5044601;28;20496;-81
2022/09/20 07:31:17;;;;;;;6.15;1.73;;;;;;;;;;5044853;28;20528;-81
2022/09/20 07:33:43;;;;;;;6.88;1.92;;;;;;;;;;5037604;28;20076;-82
2022/09/20 07:36:11;;;;;;;3.63;1.75;;;;;;;;;;5043070;28;20037;-81
2022/09/20 07:38:37;;;;;;;3.70;1.63;;;;;;;;;;5047351;28;20045;-80
2022/09/20 07:41:04;;;;;;;4.00;1.75;;;;;;;;;;5041480;28;20073;-81
2022/09/20 07:43:30;;;;;;;4.78;1.42;;;;;;;;;;5048680;28;20064;-81
2022/09/20 07:45:58;;;;;;;6.82;1.77;;;;;;;;;;5048876;28;20115;-82
2022/09/20 07:48:29;;;;;;;4.63;1.45;;;;;;;;;;5047962;28;20045;-82
2022/09/20 07:50:56;;;;;;;4.38;1.52;;;;;;;;;;5043597;28;20045;-82
2022/09/20 07:53:22;;;;;;;6.00;1.65;;;;;;;;;;5042103;28;20049;-82
2022/09/20 07:56:04;;;;;;;5.93;1.67;;;;;;;;;;5047295;28;20106;-81
2022/09/20 07:58:32;;;;;;;3.95;2.67;;;;;;;;;;5048389;28;20056;-81
2022/09/20 08:00:59;;;;;;;4.20;1.50;;;;;;;;;;5044868;28;20049;-81
2022/09/20 08:03:26;;;;;;;5.03;1.40;;;;;;;;;;5047173;28;20053;-82
2022/09/20 08:05:52;;;;;;;3.47;1.40;;;;;;;;;;5043110;28;20053;-81
2022/09/20 08:08:19;;;;;;;2.25;1.27;;;;;;;;;;5045965;28;20118;-81
2022/09/20 08:10:45;;;;;;;2.33;1.50;;;;;;;;;;5039982;28;20044;-81
2022/09/20 08:13:14;;;;;;;3.60;1.50;;;;;;;;;;5038460;28;20436;-79
2022/09/20 08:15:40;;;;;;;2.50;1.45;;;;;;;;;;5032876;28;20045;-80
2022/09/20 08:18:07;;;;;;;2.25;1.33;;;;;;;;;;5047123;28;20037;-81
2022/09/20 08:20:42;;;;;;;3.38;1.30;;;;;;;;;;5046998;28;20103;-80
2022/09/20 08:23:08;;;;;;;3.17;1.30;;;;;;;;;;5045808;28;20037;-79
2022/09/20 08:25:35;;;;;;;3.47;1.38;;;;;;;;;;5044115;28;20114;-79
2022/09/20 08:28:01;;;;;;;4.18;1.42;;;;;;;;;;5048058;28;20472;-80
2022/09/20 08:30:28;;;;;;;2.65;1.17;;;;;;;;;;5049260;28;20063;-79
2022/09/20 08:32:54;;;;;;;1.92;1.30;;;;;;;;;;5050892;28;20107;-79
2022/09/20 08:35:25;;;;;;;2.80;1.30;;;;;;;;;;5048251;28;20146;-80
2022/09/20 08:37:53;;;;;;;3.85;1.40;;;;;;;;;;5050763;28;20044;-79
2022/09/20 08:40:22;;;;;;;1.58;1.20;;;;;;;;;;5046848;28;20103;-80
2022/09/20 08:42:49;;;;;;;7.60;2.15;;;;;;;;;;5049468;28;20041;-79
2022/09/20 08:45:18;;;;;;;8.40;3.33;;;;;;;;;;5044021;28;20428;-79
2022/09/20 08:47:49;;;;;;;3.55;1.50;;;;;;;;;;5045313;28;20044;-80
2022/09/20 08:50:15;;;;;;;2.42;1.38;;;;;;;;;;5047736;28;20127;-80
2022/09/20 08:52:44;;;;;;;2.35;1.40;;;;;;;;;;5045104;28;20056;-80
2022/09/20 08:55:15;;;;;;;3.30;1.45;;;;;;;;;;5050212;28;20052;-80
2022/09/20 08:57:42;;;;;;;3.65;1.40;;;;;;;;;;5047545;28;20267;-79
2022/09/20 09:00:16;;;;;;;3.55;1.40;;;;;;;;;;5048939;28;20067;-80
2022/09/20 09:02:42;;;;;;;2.60;1.30;;;;;;;;;;5046577;28;20041;-80
2022/09/20 09:05:47;;;;;;;3.63;1.50;;;;;;;;;;5045917;28;20052;-79
2022/09/20 09:08:15;;;;;;;4.07;1.60;;;;;;;;;;4969948;28;20048;-79
2022/09/20 09:10:42;;;;;;;4.38;1.50;;;;;;;;;;4973621;28;20061;-80
2022/09/20 09:13:11;;;;;;;2.42;1.30;;;;;;;;;;5013568;28;20049;-79
2022/09/20 09:15:38;;;;;;;3.83;1.48;;;;;;;;;;5062610;28;20136;-79
2022/09/20 09:18:05;;;;;;;1.40;1.30;;;;;;;;;;5041205;28;20044;-79
2022/09/20 09:20:39;;;;;;;3.20;1.42;;;;;;;;;;5045889;28;20041;-79
2022/09/20 09:23:07;;;;;;;2.60;1.50;;;;;;;;;;5049166;28;20045;-80
2022/09/20 09:25:37;;;;;;;3.03;1.42;;;;;;;;;;5047799;28;20068;-79
2022/09/20 09:28:06;;;;;;;2.95;1.25;;;;;;;;;;5045818;28;20045;-79
2022/09/20 09:30:38;;;;;;;3.72;1.33;;;;;;;;;;5046837;28;20045;-80
2022/09/20 09:33:14;;;;;;;4.25;1.50;;;;;;;;;;5044445;28;20092;-79
2022/09/20 09:35:40;;;;;;;2.95;1.50;;;;;;;;;;5048226;28;20370;-79
2022/09/20 09:38:16;;;;;;;5.80;1.52;;;;;;;;;;5044460;28;20489;-79
2022/09/20 09:40:49;;;;;;;3.05;1.55;;;;;;;;;;5041241;28;20041;-79
2022/09/20 09:43:22;;;;;;;3.75;1.70;;;;;;;;;;5050018;28;20102;-80
2022/09/20 09:45:48;;;;;;;5.00;1.60;;;;;;;;;;5047980;28;20048;-79
2022/09/20 09:48:17;;;;;;;5.25;1.67;;;;;;;;;;5043056;28;20319;-79
2022/09/20 09:50:44;;;;;;;4.22;1.70;;;;;;;;;;5046774;28;20048;-79
2022/09/20 09:53:11;;;;;;;4.15;1.60;;;;;;;;;;5043481;28;20492;-80
2022/09/20 09:55:50;;;;;;;4.40;1.77;;;;;;;;;;5042279;28;20114;-80
2022/09/20 09:58:23;;;;;;;8.82;2.28;;;;;;;;;;5049960;28;20041;-80
2022/09/20 10:00:50;;;;;;;5.07;1.90;;;;;;;;;;5045040;28;20067;-80
2022/09/20 10:03:32;;;;;;;5.03;2.00;;;;;;;;;;5042045;28;20044;-80
2022/09/20 10:06:15;;;;;;;6.10;1.83;;;;;;;;;;5044438;28;20033;-80
2022/09/20 10:08:48;;;;;;;4.38;1.70;;;;;;;;;;5046902;28;20497;-80
2022/09/20 10:11:17;;;;;;;3.95;1.65;;;;;;;;;;5048360;28;20378;-81
2022/09/20 10:13:43;;;;;;;3.83;1.70;;;;;;;;;;5043842;28;20453;-80
2022/09/20 10:16:24;;;;;;;3.35;1.60;;;;;;;;;;5047925;28;20155;-80
2022/09/20 10:19:09;;;;;;;9.80;6.00;;;;;;;;;;5038100;28;20369;-79
2022/09/20 10:21:42;;;;;;;6.03;2.20;;;;;;;;;;5043933;28;20051;-79
2022/09/20 10:24:08;;;;;;;4.57;2.40;;;;;;;;;;5039503;28;20491;-80
2022/09/20 10:26:42;;;;;;;5.20;1.70;;;;;;;;;;5037713;28;20045;-80
2022/09/20 10:29:17;;;;;;;2.53;1.35;;;;;;;;;;5043702;28;20040;-80
2022/09/20 10:31:43;;;;;;;3.92;1.92;;;;;;;;;;5040735;28;20068;-80
2022/09/20 10:34:25;;;;;;;3.67;1.50;;;;;;;;;;5046067;28;20512;-80
2022/09/20 10:36:51;;;;;;;2.42;1.40;;;;;;;;;;5043251;28;20048;-80
2022/09/20 10:39:17;;;;;;;1.92;1.30;;;;;;;;;;5047291;28;20035;-80
2022/09/20 10:44:50;;;;;;;4.05;1.90;;;;;;;;;;5035286;28;20068;-80
2022/09/20 10:47:18;;;;;;;2.92;1.45;;;;;;;;;;5049127;28;20444;-81
2022/09/20 10:49:45;;;;;;;4.43;1.90;;;;;;;;;;5045487;28;20082;-81
2022/09/20 10:52:17;;;;;;;5.38;1.85;;;;;;;;;;5045894;28;20105;-80
2022/09/20 10:54:55;;;;;;;3.00;1.30;;;;;;;;;;5045166;28;20087;-82
2022/09/20 10:57:25;;;;;;;3.45;1.63;;;;;;;;;;5045237;28;20048;-80
2022/09/20 10:59:56;;;;;;;2.92;1.10;;;;;;;;;;5044617;28;20091;-82
2022/09/20 11:02:55;;;;;;;2.90;1.33;;;;;;;;;;5044317;28;20041;-81
2022/09/20 11:05:24;;;;;;;2.78;1.33;;;;;;;;;;5013705;28;20084;-81
2022/09/20 11:08:10;;;;;;;1.65;1.13;;;;;;;;;;5041497;28;20076;-81
2022/09/20 11:10:42;;;;;;;3.90;1.42;;;;;;;;;;5046795;28;20140;-81
2022/09/20 11:13:19;;;;;;;5.50;2.67;;;;;;;;;;5046219;28;20033;-81
2022/09/20 11:15:48;;;;;;;2.08;1.50;;;;;;;;;;5060460;28;20076;-81
2022/09/20 11:18:22;;;;;;;1.63;1.42;;;;;;;;;;5046009;28;20401;-81
2022/09/20 11:20:53;;;;;;;2.83;1.40;;;;;;;;;;5041878;28;20044;-81
2022/09/20 11:23:23;;;;;;;3.70;1.92;;;;;;;;;;5045188;28;20064;-79
2022/09/20 11:25:53;;;;;;;4.63;1.58;;;;;;;;;;5047102;28;20483;-80
2022/09/20 11:28:38;;;;;;;2.58;1.42;;;;;;;;;;5047433;28;20063;-81
2022/09/20 11:31:11;;;;;;;4.25;1.50;;;;;;;;;;5044705;28;20103;-80
2022/09/20 11:33:46;;;;;;;2.35;1.33;;;;;;;;;;5045631;28;20048;-81
2022/09/20 11:36:18;;;;;;;2.60;1.40;;;;;;;;;;5048249;28;20052;-81
2022/09/20 11:38:45;;;;;;;4.43;1.50;;;;;;;;;;5048297;28;20056;-81
2022/09/20 11:41:18;;;;;;;3.13;1.30;;;;;;;;;;5047548;28;20044;-81
2022/09/20 11:43:45;;;;;;;4.97;1.90;;;;;;;;;;5036587;28;20049;-81
2022/09/20 11:46:19;;;;;;;6.18;2.00;;;;;;;;;;5046268;28;20044;-80
2022/09/20 11:48:47;;;;;;;5.75;1.65;;;;;;;;;;5040760;28;20041;-81
2022/09/20 11:51:25;;;;;;;3.75;1.30;;;;;;;;;;5044236;28;20782;-80
2022/09/20 11:54:04;;;;;;;5.10;1.30;;;;;;;;;;5050181;28;20067;-82
2022/09/20 11:56:33;;;;;;;4.72;1.48;;;;;;;;;;5046624;28;20087;-80
2022/09/20 11:59:00;;;;;;;5.20;1.50;;;;;;;;;;5042534;28;20049;-80
2022/09/20 12:01:28;;;;;;;2.95;1.30;;;;;;;;;;5045592;28;20056;-80
2022/09/20 12:03:57;;;;;;;4.15;1.40;;;;;;;;;;5049103;28;20481;-78
2022/09/20 12:06:29;;;;;;;3.05;1.33;;;;;;;;;;5050803;28;20057;-78
2022/09/20 12:08:57;;;;;;;4.22;1.80;;;;;;;;;;5047189;28;20079;-79
2022/09/20 12:11:34;;;;;;;2.10;1.30;;;;;;;;;;5048466;28;20044;-79
2022/09/20 12:14:03;;;;;;;2.95;1.50;;;;;;;;;;5047215;28;20132;-79
2022/09/20 12:16:38;;;;;;;4.30;1.50;;;;;;;;;;5045493;28;20085;-79
2022/09/20 12:19:06;;;;;;;4.95;1.40;;;;;;;;;;5049134;28;20083;-81
2022/09/20 12:21:52;;;;;;;4.40;1.50;;;;;;;;;;5044658;28;20048;-81
2022/09/20 12:24:19;;;;;;;3.15;1.35;;;;;;;;;;5047656;28;20053;-81
2022/09/20 12:26:46;;;;;;;5.75;4.68;;;;;;;;;;5046777;28;20045;-81
2022/09/20 12:29:32;;;;;;;2.67;1.50;;;;;;;;;;5043524;28;20452;-81
2022/09/20 12:32:03;;;;;;;5.32;1.60;;;;;;;;;;5049226;28;20434;-81
2022/09/20 12:34:34;;;;;;;8.45;2.28;;;;;;;;;;5047061;28;20089;-81
2022/09/20 12:37:00;;;;;;;3.75;1.40;;;;;;;;;;5049219;28;20561;-81
2022/09/20 12:39:31;;;;;;;3.08;1.20;;;;;;;;;;5050336;28;20053;-80
2022/09/20 12:42:06;;;;;;;6.88;1.67;;;;;;;;;;5048535;28;20045;-81
2022/09/20 12:44:36;;;;;;;7.47;1.77;;;;;;;;;;5050817;28;20053;-81
2022/09/20 12:47:05;;;;;;;4.25;1.55;;;;;;;;;;5049269;28;20037;-81
2022/09/20 12:55:25;;;;;;;6.10;2.53;;;;;;;;;;5046993;28;20447;-81
2022/09/20 12:58:15;;;;;;;5.57;3.60;;;;;;;;;;5043618;28;20098;-81
2022/09/20 13:00:44;;;;;;;3.47;1.23;;;;;;;;;;5035863;28;20500;-81
2022/09/20 13:03:30;;;;;;;2.13;1.27;;;;;;;;;;5049778;28;20045;-81
2022/09/20 13:06:06;;;;;;;2.15;1.55;;;;;;;;;;5044801;28;20053;-81
2022/09/20 13:08:41;;;;;;;1.90;1.10;;;;;;;;;;5051206;28;20378;-80
2022/09/20 13:11:16;;;;;;;4.47;1.40;;;;;;;;;;5046979;28;20041;-80
2022/09/20 13:13:42;;;;;;;2.15;1.20;;;;;;;;;;5048434;28;20124;-81
2022/09/20 13:16:16;;;;;;;2.38;1.40;;;;;;;;;;5047733;28;20045;-80
2022/09/20 13:18:42;;;;;;;2.95;1.27;;;;;;;;;;5050656;28;20417;-80
2022/09/20 13:21:08;;;;;;;2.65;1.27;;;;;;;;;;5048121;28;20036;-81
2022/09/20 13:23:44;;;;;;;2.40;1.23;;;;;;;;;;5047861;28;20048;-81
2022/09/20 13:26:12;;;;;;;2.42;1.25;;;;;;;;;;5043870;28;20458;-81
2022/09/20 13:28:43;;;;;;;2.50;1.20;;;;;;;;;;5050782;28;20045;-81
2022/09/20 13:31:15;;;;;;;2.70;1.30;;;;;;;;;;5041904;28;20045;-82
2022/09/20 13:33:41;;;;;;;1.75;1.30;;;;;;;;;;5046849;28;20033;-81
2022/09/20 13:36:07;;;;;;;1.88;1.38;;;;;;;;;;5048476;28;20045;-80
2022/09/20 13:38:33;;;;;;;2.17;1.20;;;;;;;;;;5044934;28;20378;-80
2022/09/20 13:41:09;;;;;;;1.95;1.25;;;;;;;;;;5051282;28;20088;-81
2022/09/20 13:43:41;;;;;;;2.90;1.20;;;;;;;;;;5042711;28;20496;-80
2022/09/20 13:46:09;;;;;;;3.05;1.20;;;;;;;;;;5049970;28;20083;-81
2022/09/20 13:48:35;;;;;;;1.42;1.23;;;;;;;;;;5050690;28;20378;-81
2022/09/20 13:51:01;;;;;;;2.35;1.38;;;;;;;;;;5036259;28;20409;-81
2022/09/20 13:53:31;;;;;;;3.90;1.73;;;;;;;;;;5037840;28;20045;-80
2022/09/20 13:55:58;;;;;;;1.45;1.27;;;;;;;;;;5051553;28;20052;-81
2022/09/20 13:58:34;;;;;;;2.28;1.40;;;;;;;;;;5048470;28;20051;-81
2022/09/20 14:01:05;;;;;;;2.97;1.40;;;;;;;;;;5049947;28;20047;-82
2022/09/20 14:03:32;;;;;;;1.90;1.30;;;;;;;;;;5044556;28;20099;-82
2022/09/20 14:06:00;;;;;;;2.60;1.35;;;;;;;;;;5033411;28;20045;-82
2022/09/20 14:08:26;;;;;;;3.92;1.33;;;;;;;;;;5048532;28;20390;-82
2022/09/20 14:11:11;;;;;;;2.95;1.20;;;;;;;;;;5039772;28;20056;-82
2022/09/20 14:13:41;;;;;;;2.65;1.33;;;;;;;;;;5037218;28;20045;-81
2022/09/20 14:16:10;;;;;;;3.22;1.10;;;;;;;;;;5042693;28;20052;-81
2022/09/20 14:18:38;;;;;;;1.60;1.05;;;;;;;;;;5044148;28;20041;-81
2022/09/20 14:21:07;;;;;;;3.25;1.20;;;;;;;;;;5051158;28;20041;-81
2022/09/20 14:23:47;;;;;;;2.25;0.98;;;;;;;;;;5035405;28;21420;-82
2022/09/20 14:26:16;;;;;;;4.88;1.20;;;;;;;;;;5033383;28;20450;-81
2022/09/20 14:28:48;;;;;;;1.42;1.05;;;;;;;;;;5035396;28;20110;-81
2022/09/20 14:31:25;;;;;;;4.68;0.95;;;;;;;;;;5048164;28;20435;-79
2022/09/20 14:33:55;;;;;;;1.83;1.00;;;;;;;;;;5043317;28;20079;-79
2022/09/20 14:36:23;;;;;;;1.67;0.90;;;;;;;;;;5048003;28;20554;-77
2022/09/20 14:38:51;;;;;;;0.90;0.80;;;;;;;;;;5041573;28;20045;-77
2022/09/20 14:41:30;;;;;;;2.83;0.95;;;;;;;;;;5031124;28;20400;-78
2022/09/20 14:43:58;;;;;;;2.30;0.98;;;;;;;;;;5047007;28;20044;-78
2022/09/20 14:46:31;;;;;;;2.05;1.20;;;;;;;;;;5047423;28;20053;-79
2022/09/20 14:49:16;;;;;;;2.45;1.10;;;;;;;;;;5049453;28;20398;-79
2022/09/20 14:51:43;;;;;;;2.45;1.20;;;;;;;;;;5047671;28;20067;-79
2022/09/20 14:54:10;;;;;;;2.35;1.10;;;;;;;;;;5046612;28;20408;-78
2022/09/20 14:56:38;;;;;;;2.05;1.23;;;;;;;;;;5052421;28;20139;-77
2022/09/20 14:59:20;;;;;;;3.08;1.10;;;;;;;;;;5046739;28;21904;-77
2022/09/20 15:01:55;;;;;;;3.95;1.45;;;;;;;;;;5049729;28;20040;-80
2022/09/20 15:04:22;;;;;;;3.60;1.30;;;;;;;;;;5037895;28;20056;-78
2022/09/20 15:06:51;;;;;;;2.28;1.30;;;;;;;;;;5036966;28;20102;-80
2022/09/20 15:09:17;;;;;;;3.22;1.55;;;;;;;;;;5045190;28;20298;-79
2022/09/20 15:11:43;;;;;;;2.08;1.20;;;;;;;;;;5030296;28;20068;-78
2022/09/20 15:14:09;;;;;;;2.72;1.17;;;;;;;;;;5032299;28;20041;-78
2022/09/20 15:16:35;;;;;;;2.20;1.15;;;;;;;;;;5050449;28;20048;-78
2022/09/20 15:19:02;;;;;;;4.43;1.35;;;;;;;;;;5045986;28;20057;-78
2022/09/20 15:21:29;;;;;;;3.13;1.50;;;;;;;;;;5049100;28;20549;-77
2022/09/20 15:23:55;;;;;;;3.25;1.80;;;;;;;;;;5042817;28;20080;-80
2022/09/20 15:26:21;;;;;;;3.58;1.83;;;;;;;;;;5048789;28;20083;-83
2022/09/20 15:28:47;;;;;;;2.53;1.42;;;;;;;;;;5033928;28;20049;-83
2022/09/20 15:31:15;;;;;;;2.78;1.50;;;;;;;;;;5051817;28;20484;-82